createdAt,value
2019-02-10T00:01:53.821Z,7.98
2019-02-10T00:04:22.363Z,7.84
2019-02-10T00:06:50.907Z,7.77
2019-02-10T00:09:19.491Z,7.61
2019-02-10T00:11:48.417Z,7.75
2019-02-10T00:14:17.000Z,7.88
2019-02-10T00:16:45.694Z,7.83
2019-02-10T00:19:14.271Z,7.87
2019-02-10T00:21:42.841Z,7.96
2019-02-10T00:24:11.385Z,7.97
2019-02-10T00:26:39.964Z,7.99
2019-02-10T00:29:08.819Z,7.94
2019-02-10T00:31:37.364Z,7.95
2019-02-10T00:34:05.929Z,7.82
2019-02-10T00:36:34.475Z,7.64
2019-02-10T00:39:04.718Z,7.65
2019-02-10T00:41:33.266Z,7.74
2019-02-10T00:44:01.822Z,7.51
2019-02-10T00:46:30.791Z,7.33
2019-02-10T00:48:59.342Z,7.48
2019-02-10T00:51:27.907Z,7.64
2019-02-10T00:53:56.487Z,7.80
2019-02-10T00:56:25.033Z,7.67
2019-02-10T00:58:53.614Z,7.66
2019-02-10T01:01:22.164Z,7.61
2019-02-10T01:03:50.781Z,7.52
2019-02-10T01:06:19.354Z,7.44
2019-02-10T01:08:47.939Z,7.32
2019-02-10T01:11:16.542Z,7.43
2019-02-10T01:13:45.112Z,7.31
2019-02-10T01:16:13.656Z,7.25
2019-02-10T01:19:02.958Z,7.18
2019-02-10T01:21:31.569Z,7.21
2019-02-10T01:24:00.123Z,7.21
2019-02-10T01:26:28.766Z,7.02
2019-02-10T01:28:57.312Z,7.01
2019-02-10T01:31:25.855Z,6.96
2019-02-10T01:33:54.432Z,6.94
2019-02-10T01:36:22.980Z,7.04
2019-02-10T01:38:51.557Z,7.00
2019-02-10T01:41:20.388Z,7.30
2019-02-10T01:43:49.348Z,7.10
2019-02-10T01:46:17.892Z,6.86
2019-02-10T01:48:46.466Z,6.72
2019-02-10T01:51:15.000Z,6.55
2019-02-10T01:53:43.557Z,6.41
2019-02-10T01:56:12.134Z,6.40
2019-02-10T01:58:40.678Z,6.37
2019-02-10T02:01:09.219Z,6.45
2019-02-10T02:03:37.802Z,6.42
2019-02-10T02:06:06.345Z,6.31
2019-02-10T02:08:35.320Z,6.32
2019-02-10T02:11:03.900Z,6.32
2019-02-10T02:13:32.487Z,6.28
2019-02-10T02:16:02.585Z,6.32
2019-02-10T02:18:31.526Z,6.17
2019-02-10T02:21:00.737Z,6.14
2019-02-10T02:23:29.283Z,6.16
2019-02-10T02:25:58.696Z,6.18
2019-02-10T02:28:28.035Z,6.11
2019-02-10T02:30:57.306Z,6.17
2019-02-10T02:33:26.906Z,6.19
2019-02-10T02:35:56.304Z,6.20
2019-02-10T02:38:26.032Z,6.17
2019-02-10T02:40:56.199Z,6.21
2019-02-10T02:43:25.366Z,6.17
2019-02-10T02:45:53.972Z,6.23
2019-02-10T02:48:22.529Z,6.18
2019-02-10T02:50:51.824Z,6.19
2019-02-10T02:53:21.341Z,6.31
2019-02-10T02:55:50.832Z,6.32
2019-02-10T02:58:20.514Z,6.31
2019-02-10T03:00:49.889Z,6.38
2019-02-10T03:03:18.735Z,6.37
2019-02-10T03:05:47.348Z,6.37
2019-02-10T03:08:16.262Z,6.33
2019-02-10T03:10:45.610Z,6.42
2019-02-10T03:13:14.986Z,6.52
2019-02-10T03:15:44.305Z,6.56
2019-02-10T03:18:14.032Z,6.66
2019-02-10T03:20:43.328Z,6.68
2019-02-10T03:23:12.636Z,6.69
2019-02-10T03:25:41.594Z,6.69
2019-02-10T03:28:10.820Z,6.82
2019-02-10T03:30:40.448Z,6.81
2019-02-10T03:33:09.448Z,6.83
2019-02-10T03:35:38.349Z,6.82
2019-02-10T03:38:07.727Z,6.84
2019-02-10T03:40:37.035Z,6.82
2019-02-10T03:43:05.619Z,6.81
2019-02-10T03:45:34.516Z,6.83
2019-02-10T03:48:04.626Z,6.93
2019-02-10T03:50:34.426Z,6.92
2019-02-10T03:53:04.112Z,6.96
2019-02-10T03:55:33.764Z,6.98
2019-02-10T03:58:03.057Z,6.97
2019-02-10T04:00:32.466Z,6.94
2019-02-10T04:03:03.015Z,6.96
2019-02-10T04:05:35.019Z,6.92
2019-02-10T04:08:04.536Z,6.88
2019-02-10T04:10:34.870Z,6.88
2019-02-10T04:13:03.496Z,6.71
2019-02-10T04:15:33.394Z,6.68
2019-02-10T04:18:02.307Z,6.70
2019-02-10T04:20:31.605Z,6.68
2019-02-10T04:23:00.879Z,6.76
2019-02-10T04:25:30.086Z,6.85
2019-02-10T04:27:59.415Z,6.92
2019-02-10T04:30:27.955Z,7.01
2019-02-10T04:32:56.497Z,7.01
2019-02-10T04:35:25.075Z,7.07
2019-02-10T04:37:54.675Z,7.07
2019-02-10T04:40:23.227Z,7.02
2019-02-10T04:42:51.767Z,7.08
2019-02-10T04:45:21.408Z,7.11
2019-02-10T04:47:50.455Z,6.97
2019-02-10T04:50:19.795Z,6.93
2019-02-10T04:52:49.188Z,6.89
2019-02-10T04:55:18.954Z,6.88
2019-02-10T04:57:48.616Z,6.79
2019-02-10T05:00:18.017Z,6.72
2019-02-10T05:02:47.852Z,6.72
2019-02-10T05:05:17.535Z,6.70
2019-02-10T05:07:54.285Z,6.65
2019-02-10T05:10:18.535Z,6.62
2019-02-10T05:12:48.207Z,6.57
2019-02-10T05:15:17.939Z,6.52
2019-02-10T05:17:47.623Z,6.49
2019-02-10T05:20:17.378Z,6.49
2019-02-10T05:22:46.953Z,6.51
2019-02-10T05:25:16.695Z,6.44
2019-02-10T05:27:46.370Z,6.42
2019-02-10T05:30:15.997Z,6.39
2019-02-10T05:32:45.731Z,6.35
2019-02-10T05:35:15.405Z,6.44
2019-02-10T05:37:45.128Z,6.41
2019-02-10T05:40:14.776Z,6.37
2019-02-10T05:42:44.427Z,6.33
2019-02-10T05:45:14.086Z,6.30
2019-02-10T05:47:43.762Z,6.30
2019-02-10T05:50:13.322Z,6.23
2019-02-10T05:52:47.260Z,6.20
2019-02-10T05:55:20.859Z,6.22
2019-02-10T05:57:52.948Z,6.17
2019-02-10T06:00:59.352Z,6.15
2019-02-10T06:03:37.932Z,6.11
2019-02-10T06:06:09.117Z,6.09
2019-02-10T06:08:42.190Z,6.10
2019-02-10T06:11:13.117Z,6.10
2019-02-10T06:13:54.855Z,6.18
2019-02-10T06:16:31.714Z,6.13
2019-02-10T06:19:07.730Z,6.07
2019-02-10T06:21:37.487Z,6.06
2019-02-10T06:24:07.285Z,5.99
2019-02-10T06:26:36.829Z,6.05
2019-02-10T06:29:05.906Z,5.96
2019-02-10T06:31:41.760Z,5.94
2019-02-10T06:34:12.706Z,6.03
2019-02-10T06:36:42.933Z,6.03
2019-02-10T06:39:14.984Z,5.99
2019-02-10T06:41:45.908Z,6.13
2019-02-10T06:44:19.807Z,6.10
2019-02-10T06:46:51.954Z,6.03
2019-02-10T06:49:22.765Z,6.11
2019-02-10T06:51:55.258Z,6.19
2019-02-10T06:54:30.151Z,6.17
2019-02-10T06:57:00.475Z,6.12
2019-02-10T06:59:36.646Z,6.12
2019-02-10T07:02:10.360Z,6.13
2019-02-10T07:04:40.386Z,6.15
2019-02-10T07:07:10.180Z,6.22
2019-02-10T07:09:39.922Z,6.20
2019-02-10T07:12:53.241Z,6.18
2019-02-10T07:16:12.422Z,6.21
2019-02-10T07:19:17.329Z,6.30
2019-02-10T07:21:50.385Z,6.28
2019-02-10T07:24:37.731Z,6.38
2019-02-10T07:27:38.977Z,6.53
2019-02-10T07:30:45.779Z,6.49
2019-02-10T07:33:58.553Z,6.59
2019-02-10T07:37:17.986Z,6.60
2019-02-10T07:40:23.322Z,6.62
2019-02-10T07:43:39.631Z,6.62
2019-02-10T07:46:50.474Z,6.74
2019-02-10T07:49:48.140Z,6.79
2019-02-10T07:52:49.196Z,6.84
2019-02-10T07:55:48.005Z,6.91
2019-02-10T07:58:57.150Z,6.93
2019-02-10T08:02:04.456Z,7.06
2019-02-10T08:04:59.924Z,7.07
2019-02-10T08:08:26.702Z,7.08
2019-02-10T08:11:33.516Z,7.08
2019-02-10T08:14:33.727Z,7.15
2019-02-10T08:17:44.326Z,7.22
2019-02-10T08:20:50.134Z,7.26
2019-02-10T08:23:29.979Z,7.32
2019-02-10T08:26:42.581Z,7.41
2019-02-10T08:29:33.760Z,7.44
2019-02-10T08:32:38.153Z,7.46
2019-02-10T08:35:28.742Z,7.47
2019-02-10T08:38:16.768Z,7.45
2019-02-10T08:41:14.228Z,7.53
2019-02-10T08:44:16.822Z,7.64
2019-02-10T08:47:11.547Z,7.66
2019-02-10T08:50:07.946Z,7.68
2019-02-10T08:52:57.042Z,7.75
2019-02-10T08:55:47.316Z,7.83
2019-02-10T08:58:18.526Z,7.88
2019-02-10T09:01:12.150Z,7.95
2019-02-10T09:03:41.790Z,7.99
2019-02-10T09:06:10.941Z,8.08
2019-02-10T09:09:04.046Z,8.08
2019-02-10T09:11:32.611Z,7.99
2019-02-10T09:14:01.599Z,7.93
2019-02-10T09:16:31.030Z,7.92
2019-02-10T09:19:03.047Z,7.96
2019-02-10T09:21:38.513Z,7.99
2019-02-10T09:24:08.452Z,8.06
2019-02-10T09:26:37.710Z,8.07
2019-02-10T09:29:06.908Z,8.17
2019-02-10T09:31:37.840Z,8.22
2019-02-10T09:34:06.738Z,8.24
2019-02-10T09:36:35.321Z,8.24
2019-02-10T09:39:10.872Z,8.23
2019-02-10T09:41:39.325Z,8.20
2019-02-10T09:44:09.910Z,8.25
2019-02-10T09:46:43.012Z,8.21
2019-02-10T09:49:13.700Z,8.27
2019-02-10T09:51:44.432Z,8.36
2019-02-10T09:54:17.527Z,8.37
2019-02-10T09:56:52.067Z,8.34
2019-02-10T09:59:21.261Z,8.31
2019-02-10T10:01:53.164Z,8.33
2019-02-10T10:04:22.440Z,8.34
2019-02-10T10:06:53.482Z,8.42
2019-02-10T10:09:26.088Z,8.51
2019-02-10T10:11:55.861Z,8.53
2019-02-10T10:14:43.957Z,8.56
2019-02-10T10:17:16.154Z,8.59
2019-02-10T10:19:46.164Z,8.62
2019-02-10T10:22:20.793Z,8.61
2019-02-10T10:24:51.885Z,8.63
2019-02-10T10:27:22.580Z,8.59
2019-02-10T10:29:52.003Z,8.74
2019-02-10T10:32:29.215Z,8.70
2019-02-10T10:34:58.869Z,8.64
2019-02-10T10:37:39.407Z,8.66
2019-02-10T10:40:12.702Z,8.68
2019-02-10T10:42:45.597Z,8.69
2019-02-10T10:45:16.130Z,8.69
2019-02-10T10:47:48.095Z,8.73
2019-02-10T10:50:18.570Z,8.76
2019-02-10T10:52:51.982Z,8.83
2019-02-10T10:55:23.079Z,8.81
2019-02-10T10:57:53.314Z,8.88
2019-02-10T11:00:26.011Z,8.90
2019-02-10T11:02:56.432Z,8.93
2019-02-10T11:05:26.215Z,9.04
2019-02-10T11:07:56.968Z,9.04
2019-02-10T11:10:28.234Z,8.99
2019-02-10T11:12:58.556Z,8.99
2019-02-10T11:15:30.197Z,8.96
2019-02-10T11:18:02.025Z,8.96
2019-02-10T11:20:36.031Z,8.93
2019-02-10T11:23:05.202Z,8.92
2019-02-10T11:25:34.546Z,8.89
2019-02-10T11:28:04.199Z,8.87
2019-02-10T11:30:33.867Z,8.84
2019-02-10T11:33:03.579Z,8.88
2019-02-10T11:35:33.231Z,8.84
2019-02-10T11:38:02.892Z,8.81
2019-02-10T11:40:33.529Z,8.82
2019-02-10T11:43:03.254Z,8.76
2019-02-10T11:45:32.971Z,8.77
2019-02-10T11:48:03.622Z,8.72
2019-02-10T11:50:32.906Z,8.72
2019-02-10T11:53:02.281Z,8.72
2019-02-10T11:55:32.022Z,8.67
2019-02-10T11:58:03.013Z,8.65
2019-02-10T12:00:32.575Z,8.71
2019-02-10T12:03:01.586Z,8.71
2019-02-10T12:05:31.255Z,8.69
2019-02-10T12:07:59.911Z,8.72
2019-02-10T12:10:29.175Z,8.77
2019-02-10T12:12:58.716Z,8.74
2019-02-10T12:15:28.375Z,8.72
2019-02-10T12:17:57.686Z,8.69
2019-02-10T12:20:26.686Z,8.71
2019-02-10T12:23:02.192Z,8.69
2019-02-10T12:25:31.215Z,8.68
2019-02-10T12:28:01.462Z,8.68
2019-02-10T12:30:31.126Z,8.72
2019-02-10T12:33:00.762Z,8.78
2019-02-10T12:35:30.373Z,8.68
2019-02-10T12:38:00.050Z,8.68
2019-02-10T12:40:29.669Z,8.68
2019-02-10T12:42:59.272Z,8.72
2019-02-10T12:45:28.980Z,8.83
2019-02-10T12:47:58.723Z,8.80
2019-02-10T12:50:28.094Z,8.79
2019-02-10T12:52:57.287Z,8.79
2019-02-10T12:55:27.410Z,8.74
2019-02-10T12:57:57.023Z,8.79
2019-02-10T13:00:26.082Z,8.84
2019-02-10T13:02:55.623Z,8.88
2019-02-10T13:05:24.925Z,8.84
2019-02-10T13:07:54.246Z,8.95
2019-02-10T13:10:22.798Z,8.97
2019-02-10T13:12:52.034Z,8.98
2019-02-10T13:15:24.740Z,9.09
2019-02-10T13:17:54.534Z,9.14
2019-02-10T13:20:26.909Z,9.04
2019-02-10T13:22:59.646Z,9.02
2019-02-10T13:25:33.185Z,9.00
2019-02-10T13:28:03.043Z,9.00
2019-02-10T13:30:33.797Z,9.00
2019-02-10T13:33:04.777Z,9.04
2019-02-10T13:37:07.900Z,9.05
2019-02-10T13:39:37.966Z,8.97
2019-02-10T13:42:09.936Z,9.00
2019-02-10T13:45:06.106Z,9.06
2019-02-10T13:47:36.189Z,9.07
2019-02-10T13:50:07.171Z,9.18
2019-02-10T13:52:47.333Z,9.14
2019-02-10T13:55:18.799Z,9.21
2019-02-10T13:57:49.318Z,9.17
2019-02-10T14:00:20.457Z,9.21
2019-02-10T14:02:50.738Z,9.12
2019-02-10T14:05:20.961Z,9.09
2019-02-10T14:07:51.292Z,9.15
2019-02-10T14:10:25.752Z,9.09
2019-02-10T14:12:56.416Z,9.03
2019-02-10T14:15:26.034Z,9.11
2019-02-10T14:17:54.916Z,9.18
2019-02-10T14:20:23.893Z,9.16
2019-02-10T14:22:54.250Z,9.13
2019-02-10T14:25:25.856Z,9.06
2019-02-10T14:27:55.699Z,9.15
2019-02-10T14:30:25.923Z,9.22
2019-02-10T14:32:57.702Z,9.14
2019-02-10T14:35:26.979Z,9.09
2019-02-10T14:37:57.901Z,9.04
2019-02-10T14:40:33.690Z,9.03
2019-02-10T14:43:05.930Z,8.94
2019-02-10T14:45:45.851Z,8.96
2019-02-10T14:48:17.450Z,8.92
2019-02-10T14:50:50.093Z,8.82
2019-02-10T14:53:22.453Z,8.88
2019-02-10T14:55:52.916Z,8.79
2019-02-10T14:58:24.686Z,8.72
2019-02-10T15:00:53.557Z,8.71
2019-02-10T15:03:24.401Z,8.63
2019-02-10T15:05:53.901Z,8.64
2019-02-10T15:08:25.463Z,8.63
2019-02-10T15:10:54.751Z,8.65
2019-02-10T15:13:24.165Z,8.63
2019-02-10T15:15:53.834Z,8.82
2019-02-10T15:18:23.547Z,8.93
2019-02-10T15:20:53.369Z,8.89
2019-02-10T15:23:22.423Z,8.85
2019-02-10T15:25:51.755Z,8.81
2019-02-10T15:28:21.507Z,8.70
2019-02-10T15:30:51.183Z,8.67
2019-02-10T15:33:20.942Z,8.70
2019-02-10T15:35:50.638Z,8.58
2019-02-10T15:38:20.421Z,8.59
2019-02-10T15:40:50.394Z,8.54
2019-02-10T15:43:20.079Z,8.59
2019-02-10T15:45:49.748Z,8.61
2019-02-10T15:48:18.760Z,8.52
2019-02-10T15:50:48.107Z,8.59
2019-02-10T15:53:17.759Z,8.48
2019-02-10T15:55:47.437Z,8.45
2019-02-10T15:58:16.290Z,8.53
2019-02-10T16:00:44.832Z,8.51
2019-02-10T16:03:14.026Z,8.45
2019-02-10T16:05:43.656Z,8.48
2019-02-10T16:08:13.999Z,8.51
2019-02-10T16:10:43.687Z,8.48
2019-02-10T16:13:13.430Z,8.48
2019-02-10T16:15:43.074Z,8.46
2019-02-10T16:18:12.266Z,8.46
2019-02-10T16:20:41.537Z,8.42
2019-02-10T16:23:11.247Z,8.37
2019-02-10T16:25:41.009Z,8.26
2019-02-10T16:28:10.640Z,8.16
2019-02-10T16:30:40.289Z,8.02
2019-02-10T16:33:08.840Z,7.93
2019-02-10T16:35:38.165Z,7.94
2019-02-10T16:38:07.577Z,7.94
2019-02-10T16:40:36.512Z,7.97
2019-02-10T16:43:06.142Z,7.97
2019-02-10T16:45:36.038Z,7.96
2019-02-10T16:48:05.806Z,7.95
2019-02-10T16:50:35.431Z,7.86
2019-02-10T16:53:04.786Z,7.76
2019-02-10T16:55:34.214Z,7.74
2019-02-10T16:58:03.901Z,7.81
2019-02-10T17:00:33.295Z,7.76
2019-02-10T17:03:02.956Z,7.78
2019-02-10T17:05:32.237Z,7.82
2019-02-10T17:08:02.332Z,7.81
2019-02-10T17:10:32.080Z,7.81
2019-02-10T17:13:01.938Z,7.85
2019-02-10T17:15:31.563Z,7.93
2019-02-10T17:18:01.192Z,7.88
2019-02-10T17:20:30.793Z,7.86
2019-02-10T17:23:00.457Z,7.90
2019-02-10T17:25:30.202Z,7.84
2019-02-10T17:28:00.101Z,7.82
2019-02-10T17:30:29.450Z,7.69
2019-02-10T17:32:58.820Z,7.66
2019-02-10T17:35:28.566Z,7.73
2019-02-10T17:37:58.152Z,7.60
2019-02-10T17:40:31.972Z,7.47
2019-02-10T17:43:02.996Z,7.36
2019-02-10T17:45:32.632Z,7.33
2019-02-10T17:48:01.544Z,7.38
2019-02-10T17:50:30.510Z,7.30
2019-02-10T17:53:00.319Z,7.31
2019-02-10T17:55:30.009Z,7.52
2019-02-10T17:57:59.719Z,7.47
2019-02-10T18:00:33.183Z,7.34
2019-02-10T18:03:02.929Z,7.33
2019-02-10T18:05:32.590Z,7.45
2019-02-10T18:08:02.296Z,7.51
2019-02-10T18:10:31.958Z,7.51
2019-02-10T18:13:01.780Z,7.47
2019-02-10T18:15:48.975Z,7.37
2019-02-10T18:18:43.206Z,7.28
2019-02-10T18:21:34.534Z,7.12
2019-02-10T18:24:14.550Z,7.06
2019-02-10T18:27:18.274Z,6.95
2019-02-10T18:30:05.586Z,6.93
2019-02-10T18:32:51.543Z,6.75
2019-02-10T18:35:45.786Z,6.79
2019-02-10T18:38:21.374Z,6.69
2019-02-10T18:40:58.493Z,6.70
2019-02-10T18:43:49.397Z,6.65
2019-02-10T18:46:26.950Z,6.65
2019-02-10T18:49:21.419Z,6.70
2019-02-10T18:52:09.071Z,6.67
2019-02-10T18:54:47.177Z,6.80
2019-02-10T18:57:24.431Z,6.74
2019-02-10T19:00:17.606Z,6.75
2019-02-10T19:03:12.957Z,6.74
2019-02-10T19:05:49.710Z,6.79
2019-02-10T19:08:38.884Z,6.74
2019-02-10T19:11:22.960Z,6.75
2019-02-10T19:14:01.643Z,6.70
2019-02-10T19:16:46.558Z,6.63
2019-02-10T19:19:41.668Z,6.54
2019-02-10T19:22:32.024Z,6.43
2019-02-10T19:25:12.740Z,6.39
2019-02-10T19:28:06.671Z,6.28
2019-02-10T19:30:53.678Z,6.23
2019-02-10T19:33:51.860Z,6.12
2019-02-10T19:36:55.177Z,6.03
2019-02-10T19:39:42.239Z,6.05
2019-02-10T19:42:45.556Z,5.96
2019-02-10T19:45:49.475Z,5.82
2019-02-10T19:48:36.386Z,5.70
2019-02-10T19:51:25.592Z,5.59
2019-02-10T19:54:09.575Z,5.47
2019-02-10T19:56:56.890Z,5.30
2019-02-10T19:59:54.306Z,5.16
2019-02-10T20:02:39.153Z,5.11
2019-02-10T20:05:33.126Z,5.00
2019-02-10T20:08:15.862Z,4.90
2019-02-10T20:11:00.428Z,4.80
2019-02-10T20:13:51.166Z,4.73
2019-02-10T20:16:29.198Z,4.64
2019-02-10T20:19:14.531Z,4.54
2019-02-10T20:22:01.929Z,4.55
2019-02-10T20:24:45.742Z,4.57
2019-02-10T20:27:30.476Z,4.59
2019-02-10T20:30:21.468Z,4.51
2019-02-10T20:33:19.832Z,4.45
2019-02-10T20:36:06.060Z,4.42
2019-02-10T20:38:55.020Z,4.41
2019-02-10T20:41:43.364Z,4.43
2019-02-10T20:44:31.820Z,4.42
2019-02-10T20:47:19.694Z,4.41
2019-02-10T20:50:17.028Z,4.41
2019-02-10T20:53:11.067Z,4.36
2019-02-10T20:55:46.236Z,4.36
2019-02-10T20:58:27.516Z,4.30
2019-02-10T21:01:35.639Z,4.29
2019-02-10T21:04:18.118Z,4.26
2019-02-10T21:07:06.392Z,4.24
2019-02-10T21:09:51.937Z,4.19
2019-02-10T21:12:36.280Z,4.15
2019-02-10T21:15:33.282Z,4.10
2019-02-10T21:18:19.755Z,4.08
2019-02-10T21:21:08.045Z,4.05
2019-02-10T21:23:50.499Z,4.01
2019-02-10T21:26:31.168Z,3.96
2019-02-10T21:29:19.637Z,3.92
2019-02-10T21:31:54.142Z,3.86
2019-02-10T21:34:31.060Z,3.81
2019-02-10T21:37:10.165Z,3.75
2019-02-10T21:39:58.412Z,3.72
2019-02-10T21:42:46.268Z,3.69
2019-02-10T21:45:34.517Z,3.65
2019-02-10T21:48:25.278Z,3.64
2019-02-10T21:50:55.008Z,3.62
2019-02-10T21:53:24.395Z,3.60
2019-02-10T21:55:53.214Z,3.59
2019-02-10T21:58:21.759Z,3.56
2019-02-10T22:00:50.334Z,3.54
2019-02-10T22:03:18.882Z,3.54
2019-02-10T22:05:47.423Z,3.55
2019-02-10T22:08:16.701Z,3.57
2019-02-10T22:10:46.666Z,3.56
2019-02-10T22:13:15.563Z,3.53
2019-02-10T22:15:44.142Z,3.55
2019-02-10T22:18:14.962Z,3.54
2019-02-10T22:20:43.597Z,3.55
2019-02-10T22:23:12.854Z,3.60
2019-02-10T22:25:42.635Z,3.60
2019-02-10T22:28:11.998Z,3.60
2019-02-10T22:30:41.035Z,3.63
2019-02-10T22:33:11.545Z,3.63
2019-02-10T22:35:41.339Z,3.62
2019-02-10T22:38:10.508Z,3.63
2019-02-10T22:40:39.407Z,3.55
2019-02-10T22:43:08.371Z,3.49
2019-02-10T22:45:39.155Z,3.43
2019-02-10T22:48:08.470Z,3.41
2019-02-10T22:50:37.907Z,3.35
2019-02-10T22:53:06.896Z,3.31
2019-02-10T22:55:36.262Z,3.27
2019-02-10T22:58:05.531Z,3.27
2019-02-10T23:00:53.018Z,3.27
2019-02-10T23:03:22.487Z,3.23
2019-02-10T23:05:51.378Z,3.18
2019-02-10T23:08:21.000Z,3.16
2019-02-10T23:10:51.942Z,3.11
2019-02-10T23:13:21.112Z,3.10
2019-02-10T23:15:53.005Z,3.02
2019-02-10T23:18:22.613Z,2.95
2019-02-10T23:20:57.225Z,2.99
2019-02-10T23:23:26.520Z,3.04
2019-02-10T23:25:55.975Z,3.10
2019-02-10T23:28:25.564Z,3.16
2019-02-10T23:30:54.806Z,3.17
2019-02-10T23:33:24.424Z,3.18
2019-02-10T23:35:53.346Z,3.21
2019-02-10T23:38:22.433Z,3.25
2019-02-10T23:40:53.501Z,3.26
2019-02-10T23:43:23.166Z,3.28
2019-02-10T23:45:56.962Z,3.29
2019-02-10T23:48:28.187Z,3.29
2019-02-10T23:50:58.120Z,3.33
2019-02-10T23:53:28.330Z,3.44
2019-02-10T23:55:58.974Z,3.50
2019-02-10T23:58:30.469Z,3.51
